Terminal Aerodrome Forecast
Issued by NWS Portland, OR

Home | Current Version | Previous Version | Text Only | Print | Product List | Glossary On
Versions: 1 2 3 4 5 6 7 8 9 10 11 12 13 14 15 16 17 18 19 20 21 22
000
FTUS46 KPQR 250537 AAA
TAFEUG
TAF AMD
KEUG 250537Z 2506/2606 32007KT P6SM SCT050 BKN080
     FM251100 24003KT P6SM BKN025
     FM251800 31005KT P6SM BKN035
     FM252200 34008KT P6SM SCT050=

USA.gov is the U.S. government's official web portal to all federal, state and local government web resources and services.